Time;durP1;ratioP1;P1;durP2;ratioP2;P2;SDS_P1;SDS_P2;PMS_P1;PMS_P2;Temp;Humidity;BMP_temperature;BMP_pressure;BME280_temperature;BME280_humidity;BME280_pressure;Samples;Min_cycle;Max_cycle;Signal;HPM_P1;HPM_P2
2021/09/02 00:02:02;;;;;;;15.27;7.88;;;;;;;17.71;64.45;102955.34;4923144;29;20100;-83
2021/09/02 00:04:27;;;;;;;13.88;7.72;;;;;;;17.59;64.47;102955.94;4923617;29;20024;-84
2021/09/02 00:06:53;;;;;;;16.63;7.65;;;;;;;17.60;64.08;102953.19;4906685;29;20028;-83
2021/09/02 00:09:20;;;;;;;13.55;7.47;;;;;;;17.68;64.01;102952.81;4923531;29;20036;-84
2021/09/02 00:11:46;;;;;;;11.25;7.07;;;;;;;17.68;64.21;102953.66;4923698;29;20080;-83
2021/09/02 00:14:12;;;;;;;13.60;7.35;;;;;;;17.61;64.37;102959.41;4907391;29;20051;-84
2021/09/02 00:16:38;;;;;;;18.65;8.25;;;;;;;17.63;64.14;102950.38;4923329;29;20084;-84
2021/09/02 00:19:05;;;;;;;12.18;7.43;;;;;;;17.68;64.17;102958.16;4923465;29;20076;-84
2021/09/02 00:21:33;;;;;;;12.68;7.25;;;;;;;17.51;64.29;102946.47;4923526;29;20052;-84
2021/09/02 00:23:58;;;;;;;16.70;7.78;;;;;;;17.61;64.15;102954.91;4907298;29;20040;-83
2021/09/02 00:26:25;;;;;;;14.50;6.93;;;;;;;17.57;64.36;102956.03;4923498;29;20134;-84
2021/09/02 00:28:51;;;;;;;14.13;7.25;;;;;;;17.61;64.08;102949.56;4923974;29;20028;-83
2021/09/02 00:31:16;;;;;;;14.40;7.05;;;;;;;17.65;63.96;102943.13;4923578;29;20080;-83
2021/09/02 00:33:42;;;;;;;11.02;7.00;;;;;;;17.65;64.10;102940.44;4907270;29;20077;-83
2021/09/02 00:36:08;;;;;;;13.68;7.30;;;;;;;17.66;64.02;102947.53;4723897;23;4907631;-83
2021/09/02 00:38:36;;;;;;;13.88;6.75;;;;;;;17.66;64.13;102939.50;4889714;29;20037;-83
2021/09/02 00:41:05;;;;;;;12.85;7.13;;;;;;;17.65;64.07;102942.28;4889745;29;20060;-83
2021/09/02 00:43:41;;;;;;;14.65;7.32;;;;;;;17.65;64.32;102942.28;4889899;29;20041;-85
2021/09/02 00:46:11;;;;;;;13.30;7.22;;;;;;;17.65;64.36;102948.47;4872696;29;20041;-85
2021/09/02 00:48:36;;;;;;;13.23;7.10;;;;;;;17.62;64.50;102940.59;4889348;29;20021;-85
2021/09/02 00:51:02;;;;;;;13.95;6.78;;;;;;;17.64;64.65;102945.88;4890836;29;20372;-85
2021/09/02 00:53:30;;;;;;;12.85;7.43;;;;;;;17.63;64.41;102939.66;4893501;29;20041;-85
2021/09/02 00:55:56;;;;;;;16.25;7.70;;;;;;;17.63;64.44;102939.66;4858854;29;20048;-86
2021/09/02 00:58:21;;;;;;;11.20;6.65;;;;;;;17.60;64.52;102944.28;4857618;29;20029;-85
2021/09/02 01:00:51;;;;;;;17.48;7.85;;;;;;;17.49;64.38;102936.81;4889396;29;20532;-86
2021/09/02 01:03:20;;;;;;;15.02;7.78;;;;;;;17.48;64.16;102940.44;4888152;29;20048;-83
2021/09/02 01:05:51;;;;;;;12.77;7.28;;;;;;;17.45;64.59;102933.41;4871990;29;20065;-84
2021/09/02 01:08:18;;;;;;;14.98;7.85;;;;;;;17.50;64.35;102928.72;4871915;29;20037;-84
2021/09/02 01:10:46;;;;;;;12.63;8.13;;;;;;;17.55;64.22;102931.16;4888659;29;20056;-84
2021/09/02 01:13:11;;;;;;;13.20;7.07;;;;;;;17.56;64.65;102925.72;4872061;29;20131;-84
2021/09/02 01:15:39;;;;;;;16.42;7.25;;;;;;;17.38;65.40;102924.84;4888306;29;20033;-84
2021/09/02 01:18:04;;;;;;;16.67;7.78;;;;;;;17.38;65.76;102918.63;4872026;29;20112;-84
2021/09/02 01:20:30;;;;;;;17.00;7.53;;;;;;;17.21;66.57;102922.13;4888875;29;20080;-84
2021/09/02 01:22:58;;;;;;;16.10;8.25;;;;;;;17.26;66.59;102915.59;4888146;29;20029;-84
2021/09/02 01:25:28;;;;;;;15.90;8.35;;;;;;;17.38;66.27;102915.94;4888351;29;20040;-85
2021/09/02 01:27:55;;;;;;;18.30;8.27;;;;;;;17.44;66.15;102915.63;4888508;29;20066;-84
2021/09/02 01:30:23;;;;;;;18.70;8.18;;;;;;;17.34;66.53;102909.03;4888202;29;20032;-84
2021/09/02 01:32:49;;;;;;;13.90;7.80;;;;;;;17.36;66.51;102907.13;4888239;29;20124;-83
2021/09/02 01:35:20;;;;;;;22.10;9.18;;;;;;;17.48;66.30;102903.00;4854290;29;20045;-82
2021/09/02 01:37:53;;;;;;;19.48;8.35;;;;;;;17.58;65.99;102908.72;4887874;29;20053;-84
2021/09/02 01:40:22;;;;;;;19.70;8.13;;;;;;;17.47;66.28;102909.25;4888301;29;20033;-85
2021/09/02 01:42:47;;;;;;;16.45;8.30;;;;;;;17.37;66.75;102903.53;4871484;29;20043;-84
2021/09/02 01:45:13;;;;;;;20.05;8.77;;;;;;;17.26;67.33;102914.72;4887800;29;20457;-84
2021/09/02 01:47:41;;;;;;;23.08;8.70;;;;;;;17.34;67.16;102907.19;4881204;29;20116;-85
2021/09/02 01:50:16;;;;;;;17.40;8.43;;;;;;;17.28;67.31;102905.69;4870988;29;20053;-84
2021/09/02 01:52:43;;;;;;;22.42;8.63;;;;;;;17.24;67.55;102912.13;4902266;29;20037;-84
2021/09/02 01:55:09;;;;;;;19.20;8.50;;;;;;;17.35;67.39;102914.28;4885788;29;20037;-85
2021/09/02 01:57:37;;;;;;;20.23;9.98;;;;;;;17.15;68.13;102916.09;4887116;29;20092;-85
2021/09/02 02:00:05;;;;;;;17.75;8.90;;;;;;;17.27;67.82;102914.63;4882253;29;20067;-85
2021/09/02 02:02:30;;;;;;;19.77;8.38;;;;;;;17.06;68.32;102917.41;4886642;29;20115;-84
2021/09/02 02:04:56;;;;;;;19.27;8.88;;;;;;;17.33;67.72;102918.84;4886998;29;20056;-84
2021/09/02 02:07:22;;;;;;;19.85;9.05;;;;;;;17.04;68.53;102916.59;4885757;29;20025;-84
2021/09/02 02:09:49;;;;;;;19.15;8.70;;;;;;;17.09;68.87;102912.84;4869589;29;20028;-85
2021/09/02 02:12:15;;;;;;;20.00;8.90;;;;;;;17.08;69.09;102911.13;4886044;29;20033;-84
2021/09/02 02:14:42;;;;;;;17.73;8.48;;;;;;;17.11;69.11;102908.31;4868881;29;20460;-84
2021/09/02 02:17:07;;;;;;;19.95;8.90;;;;;;;17.21;68.38;102898.91;4886803;29;20045;-84
2021/09/02 02:19:32;;;;;;;21.08;8.52;;;;;;;17.27;68.36;102897.75;4887438;29;20044;-84
2021/09/02 02:21:58;;;;;;;21.23;9.48;;;;;;;17.10;69.14;102896.75;4870649;29;20033;-83
2021/09/02 02:24:24;;;;;;;17.63;9.05;;;;;;;17.19;68.72;102898.13;4887566;29;20036;-84
2021/09/02 02:26:49;;;;;;;19.80;8.98;;;;;;;17.01;68.95;102886.47;4871167;29;20061;-84
2021/09/02 02:29:15;;;;;;;19.73;9.32;;;;;;;17.24;68.37;102889.88;4886758;29;20041;-84
2021/09/02 02:31:40;;;;;;;23.92;9.25;;;;;;;17.29;68.21;102890.50;4870560;29;20607;-84
2021/09/02 02:34:06;;;;;;;20.30;9.18;;;;;;;17.35;67.90;102895.56;4855575;29;20033;-84
2021/09/02 02:36:31;;;;;;;19.13;9.38;;;;;;;17.18;68.17;102891.91;4884521;29;20640;-84
2021/09/02 02:38:57;;;;;;;18.77;9.40;;;;;;;17.08;68.16;102885.28;4887627;29;20097;-84
2021/09/02 02:41:22;;;;;;;22.52;9.23;;;;;;;17.22;67.59;102889.97;4872007;29;20123;-84
2021/09/02 02:43:48;;;;;;;22.98;9.73;;;;;;;17.19;67.66;102884.75;4869263;29;20040;-84
2021/09/02 02:46:13;;;;;;;25.13;9.13;;;;;;;17.12;67.58;102880.63;4886744;29;20029;-85
2021/09/02 02:48:40;;;;;;;19.52;9.02;;;;;;;17.29;67.09;102879.81;4882477;29;20059;-85
2021/09/02 02:51:05;;;;;;;22.80;10.18;;;;;;;17.37;66.67;102887.47;4865229;29;20032;-85
2021/09/02 02:53:31;;;;;;;19.98;9.52;;;;;;;17.37;66.71;102887.47;4881528;29;20437;-85
2021/09/02 02:55:56;;;;;;;22.77;9.18;;;;;;;17.25;66.96;102894.28;4865550;29;20037;-85
2021/09/02 02:58:22;;;;;;;20.70;9.15;;;;;;;17.37;66.57;102892.81;4882333;29;20392;-85
2021/09/02 03:00:47;;;;;;;19.98;8.52;;;;;;;17.35;66.36;102895.56;4882114;29;20037;-85
2021/09/02 03:03:14;;;;;;;18.65;9.20;;;;;;;17.33;66.04;102894.78;4882287;29;20033;-85
2021/09/02 03:05:39;;;;;;;18.73;8.93;;;;;;;17.37;65.96;102891.00;4882939;29;20085;-86
2021/09/02 03:08:05;;;;;;;18.00;8.98;;;;;;;17.40;65.87;102893.50;4883565;29;20025;-86
2021/09/02 03:10:30;;;;;;;21.27;8.82;;;;;;;17.48;65.69;102890.47;4882783;29;20037;-85
2021/09/02 03:12:56;;;;;;;22.92;9.07;;;;;;;17.50;65.65;102885.03;4882760;29;20025;-84
2021/09/02 03:15:21;;;;;;;21.85;8.93;;;;;;;17.50;65.52;102882.38;4882629;29;20414;-85
2021/09/02 03:17:49;;;;;;;15.52;7.80;;;;;;;17.49;65.64;102875.28;4883215;29;20377;-85
2021/09/02 03:20:15;;;;;;;20.25;8.25;;;;;;;17.50;65.63;102877.88;4883345;29;20025;-85
2021/09/02 03:22:40;;;;;;;20.00;8.45;;;;;;;17.50;65.42;102872.53;4884034;29;20037;-87
2021/09/02 03:25:06;;;;;;;17.52;8.57;;;;;;;17.51;65.27;102873.41;4884486;29;20037;-84
2021/09/02 03:27:31;;;;;;;21.33;9.38;;;;;;;17.51;65.04;102873.41;4853030;29;20489;-84
2021/09/02 03:29:57;;;;;;;22.35;8.55;;;;;;;17.27;65.64;102874.53;4883934;29;20045;-84
2021/09/02 03:32:22;;;;;;;20.33;8.00;;;;;;;17.31;66.21;102864.56;4881983;29;20068;-85
2021/09/02 03:34:48;;;;;;;19.10;8.75;;;;;;;17.48;65.98;102873.56;4884135;29;20058;-84
2021/09/02 03:37:14;;;;;;;20.50;8.88;;;;;;;17.39;66.04;102872.19;4884557;29;20057;-83
2021/09/02 03:39:40;;;;;;;20.10;9.02;;;;;;;17.40;66.14;102876.63;4885094;29;20041;-81
2021/09/02 03:42:06;;;;;;;21.80;8.60;;;;;;;17.43;65.70;102871.97;4885370;29;20081;-84
2021/09/02 03:44:32;;;;;;;17.92;8.70;;;;;;;17.49;65.33;102872.63;4885574;29;20029;-84
2021/09/02 03:46:58;;;;;;;19.77;8.75;;;;;;;17.51;65.30;102874.25;4885184;29;20029;-84
2021/09/02 03:49:24;;;;;;;19.27;8.45;;;;;;;17.51;65.40;102874.25;4885269;29;20085;-84
2021/09/02 03:51:49;;;;;;;19.15;9.25;;;;;;;17.49;65.71;102877.97;4899255;29;20048;-84
2021/09/02 03:54:14;;;;;;;22.65;8.70;;;;;;;17.52;65.77;102876.00;4885634;29;20037;-85
2021/09/02 03:56:40;;;;;;;15.73;7.63;;;;;;;17.52;65.62;102873.34;4886751;29;20041;-84
2021/09/02 03:59:05;;;;;;;23.40;9.45;;;;;;;17.49;65.50;102870.81;4885271;29;20093;-83
2021/09/02 04:01:31;;;;;;;18.98;8.50;;;;;;;17.39;65.94;102867.72;4884858;29;20029;-84
2021/09/02 04:03:56;;;;;;;17.63;8.60;;;;;;;17.48;65.72;102877.09;4883637;29;20029;-84
2021/09/02 04:06:23;;;;;;;20.90;8.93;;;;;;;17.42;65.74;102874.72;4868185;29;20040;-83
2021/09/02 04:08:50;;;;;;;20.80;8.80;;;;;;;17.39;65.92;102870.41;4884598;29;20029;-84
2021/09/02 04:11:15;;;;;;;18.02;8.25;;;;;;;17.29;66.17;102885.16;4885174;29;20089;-83
2021/09/02 04:13:41;;;;;;;19.27;8.75;;;;;;;17.29;66.26;102872.66;4885534;29;20041;-83
2021/09/02 04:16:06;;;;;;;21.33;9.25;;;;;;;17.38;65.79;102881.19;4893664;29;20021;-83
2021/09/02 04:18:33;;;;;;;20.27;8.38;;;;;;;17.40;65.99;102881.97;4868360;29;20057;-83
2021/09/02 04:20:58;;;;;;;20.83;8.90;;;;;;;17.43;65.74;102871.13;4894175;29;20107;-84
2021/09/02 04:23:24;;;;;;;22.83;9.05;;;;;;;17.31;65.94;102875.25;4868062;29;20058;-83
2021/09/02 04:25:50;;;;;;;18.27;8.63;;;;;;;17.30;66.24;102882.41;4867908;29;20037;-83
2021/09/02 04:28:15;;;;;;;22.52;9.20;;;;;;;17.42;66.06;102877.41;4896588;29;20404;-83
2021/09/02 04:30:40;;;;;;;20.88;9.68;;;;;;;17.33;66.35;102875.19;4885339;29;20029;-83
2021/09/02 04:33:07;;;;;;;23.83;8.90;;;;;;;17.28;66.66;102878.97;4903480;29;20069;-83
2021/09/02 04:35:33;;;;;;;21.73;9.93;;;;;;;17.12;67.34;102875.28;4902907;23;20045;-84
2021/09/02 04:37:58;;;;;;;21.38;9.88;;;;;;;16.99;68.12;102875.00;4884800;29;20053;-84
2021/09/02 04:40:24;;;;;;;24.58;9.93;;;;;;;17.10;67.92;102883.38;4870717;29;20037;-85
2021/09/02 04:42:49;;;;;;;21.40;10.48;;;;;;;17.27;67.41;102885.22;4874989;29;20044;-84
2021/09/02 04:45:14;;;;;;;25.38;10.52;;;;;;;17.31;67.56;102878.81;4893115;29;20033;-84
2021/09/02 04:47:41;;;;;;;23.73;10.48;;;;;;;17.33;67.55;102878.72;4892870;29;20048;-84
2021/09/02 04:50:10;;;;;;;22.15;10.48;;;;;;;17.21;68.13;102868.66;4892721;29;20029;-85
2021/09/02 04:52:35;;;;;;;22.70;10.82;;;;;;;17.24;68.13;102871.16;4895300;29;20040;-84
2021/09/02 04:55:06;;;;;;;24.05;10.82;;;;;;;17.18;68.53;102872.31;4894004;29;20032;-84
2021/09/02 04:57:31;;;;;;;25.02;11.45;;;;;;;17.10;69.12;102874.50;4875878;29;20112;-85
2021/09/02 04:59:57;;;;;;;21.33;10.82;;;;;;;17.20;68.99;102873.13;4893063;29;20041;-85
2021/09/02 05:02:23;;;;;;;23.67;11.30;;;;;;;17.33;68.69;102862.69;4892684;29;20025;-85
2021/09/02 05:04:50;;;;;;;29.58;12.57;;;;;;;17.28;68.83;102868.25;4873973;29;20037;-86
2021/09/02 05:07:17;;;;;;;28.50;12.13;;;;;;;17.38;68.75;102875.81;4888650;29;20112;-85
2021/09/02 05:09:44;;;;;;;30.02;12.95;;;;;;;17.10;69.93;102869.16;4873003;29;20060;-85
2021/09/02 05:12:09;;;;;;;22.05;11.93;;;;;;;16.85;71.24;102875.66;4857990;29;20045;-83
2021/09/02 05:14:35;;;;;;;27.48;13.40;;;;;;;16.93;71.31;102874.34;4889717;29;20481;-84
2021/09/02 05:17:00;;;;;;;26.52;12.52;;;;;;;17.10;70.89;102880.69;4859486;29;20029;-84
2021/09/02 05:19:28;;;;;;;28.35;13.10;;;;;;;16.93;72.00;102874.34;4896656;29;20085;-84
2021/09/02 05:21:53;;;;;;;27.45;13.85;;;;;;;16.75;72.87;102885.91;4893123;29;20029;-83
2021/09/02 05:24:19;;;;;;;26.65;13.63;;;;;;;16.87;72.63;102889.78;4889533;29;20033;-85
2021/09/02 05:26:46;;;;;;;29.90;13.35;;;;;;;17.06;72.08;102885.31;4889882;29;20026;-85
2021/09/02 05:29:14;;;;;;;28.67;13.13;;;;;;;17.25;71.57;102892.47;4862457;29;20033;-85
2021/09/02 05:31:40;;;;;;;26.17;12.77;;;;;;;16.88;72.67;102895.06;4895714;29;20025;-84
2021/09/02 05:34:05;;;;;;;24.05;11.85;;;;;;;17.11;71.88;102887.81;4876361;29;20049;-85
2021/09/02 05:36:30;;;;;;;23.67;12.43;;;;;;;17.06;71.91;102887.13;4886552;29;20044;-84
2021/09/02 05:38:56;;;;;;;26.15;11.48;;;;;;;17.18;71.61;102883.88;4893930;29;20037;-84
2021/09/02 05:41:21;;;;;;;21.50;11.70;;;;;;;16.97;71.85;102885.78;4895425;29;20033;-83
2021/09/02 05:43:47;;;;;;;23.05;12.27;;;;;;;17.14;71.45;102884.97;4892802;29;20112;-82
2021/09/02 05:46:12;;;;;;;24.25;11.85;;;;;;;17.01;71.82;102891.81;4895772;29;20045;-82
2021/09/02 05:48:38;;;;;;;22.27;11.68;;;;;;;17.03;71.54;102893.50;4898202;29;20088;-83
2021/09/02 05:51:03;;;;;;;22.65;10.80;;;;;;;17.16;71.40;102896.44;4892671;29;20031;-84
2021/09/02 05:53:28;;;;;;;23.88;12.02;;;;;;;16.81;72.27;102885.63;4887210;29;20033;-84
2021/09/02 05:55:54;;;;;;;19.80;10.38;;;;;;;16.86;72.60;102893.41;4886421;29;20037;-84
2021/09/02 05:58:22;;;;;;;25.35;11.90;;;;;;;16.95;72.14;102890.31;4887754;29;20036;-83
2021/09/02 06:00:48;;;;;;;22.02;10.85;;;;;;;16.85;72.32;102886.34;4874538;29;20028;-84
2021/09/02 06:03:13;;;;;;;24.70;11.02;;;;;;;16.81;72.47;102889.16;4893274;29;20033;-83
2021/09/02 06:05:39;;;;;;;21.95;10.65;;;;;;;17.12;71.38;102891.31;4891575;29;20029;-85
2021/09/02 06:08:04;;;;;;;23.00;10.30;;;;;;;17.30;70.74;102886.91;4891438;29;20033;-84
2021/09/02 06:10:31;;;;;;;21.55;10.80;;;;;;;17.34;71.06;102888.47;4892475;29;20036;-84
2021/09/02 06:12:57;;;;;;;16.45;9.77;;;;;;;17.43;70.28;102888.03;4880551;29;20049;-82
2021/09/02 06:15:22;;;;;;;21.95;10.27;;;;;;;17.12;71.34;102891.31;4903744;29;20068;-83
2021/09/02 06:17:47;;;;;;;19.38;9.77;;;;;;;17.19;71.10;102884.75;4903671;29;20044;-83
2021/09/02 06:20:13;;;;;;;18.98;9.52;;;;;;;17.19;71.02;102895.44;4903628;29;20045;-83
2021/09/02 06:22:39;;;;;;;16.20;9.75;;;;;;;17.29;70.74;102891.38;4903370;29;20080;-83
2021/09/02 06:25:06;;;;;;;19.40;9.27;;;;;;;17.26;70.76;102888.84;4903196;29;20105;-83
2021/09/02 06:27:32;;;;;;;22.33;9.00;;;;;;;17.37;70.51;102891.00;4903567;29;20125;-86
2021/09/02 06:29:57;;;;;;;18.52;8.38;;;;;;;17.34;70.61;102887.63;4903688;29;20032;-84
2021/09/02 06:32:23;;;;;;;18.02;9.50;;;;;;;17.31;70.25;102886.81;4903411;29;20021;-86
2021/09/02 06:34:48;;;;;;;17.63;8.05;;;;;;;17.13;70.61;102879.72;4903162;29;20044;-84
2021/09/02 06:37:14;;;;;;;17.08;7.97;;;;;;;17.06;70.65;102885.31;4903287;29;20060;-84
2021/09/02 06:39:39;;;;;;;15.95;8.00;;;;;;;17.15;70.54;102886.69;4903337;29;20118;-85
2021/09/02 06:42:05;;;;;;;13.77;7.95;;;;;;;17.34;69.89;102877.78;4903541;29;20077;-84
2021/09/02 06:44:30;;;;;;;17.65;7.88;;;;;;;17.26;70.06;102882.63;4903374;29;20081;-84
2021/09/02 06:46:55;;;;;;;20.23;8.35;;;;;;;16.96;70.62;102886.69;4901267;29;20105;-84
2021/09/02 06:49:21;;;;;;;18.48;7.32;;;;;;;17.05;70.23;102886.25;4902534;29;20033;-83
2021/09/02 06:51:47;;;;;;;15.57;7.07;;;;;;;17.17;70.00;102892.84;4902884;29;20036;-85
2021/09/02 06:54:12;;;;;;;13.38;6.68;;;;;;;17.23;69.55;102889.00;4902358;29;20085;-84
2021/09/02 06:56:38;;;;;;;15.57;7.18;;;;;;;17.57;68.12;102894.50;4902471;29;20020;-84
2021/09/02 06:59:03;;;;;;;16.50;6.72;;;;;;;17.46;68.36;102891.50;4902913;29;20017;-85
2021/09/02 07:01:29;;;;;;;16.65;6.43;;;;;;;17.45;68.38;102895.13;4903089;29;20025;-83
2021/09/02 07:03:54;;;;;;;16.55;7.03;;;;;;;17.19;69.36;102890.94;4902779;29;20025;-83
2021/09/02 07:06:20;;;;;;;16.88;6.72;;;;;;;17.46;68.72;102894.16;4901113;29;20040;-85
2021/09/02 07:08:45;;;;;;;13.65;6.55;;;;;;;17.50;67.98;102896.59;4900687;29;20085;-84
2021/09/02 07:11:10;;;;;;;14.82;6.68;;;;;;;17.36;68.35;102896.41;4901083;29;20498;-84
2021/09/02 07:13:36;;;;;;;15.75;6.50;;;;;;;17.15;68.82;102896.53;4900635;29;20048;-84
2021/09/02 07:16:01;;;;;;;12.68;6.40;;;;;;;17.48;67.66;102898.47;4901809;29;20033;-84
2021/09/02 07:18:27;;;;;;;13.13;6.75;;;;;;;17.85;66.71;102905.59;4902512;29;20072;-85
2021/09/02 07:20:52;;;;;;;13.73;6.28;;;;;;;17.67;67.27;102902.91;4900592;29;20064;-85
2021/09/02 07:23:18;;;;;;;15.40;7.15;;;;;;;17.74;67.19;102904.34;4900669;29;20025;-84
2021/09/02 07:25:44;;;;;;;12.85;6.40;;;;;;;17.86;66.74;102902.84;4904369;29;20064;-84
2021/09/02 07:28:09;;;;;;;13.48;6.47;;;;;;;17.66;67.19;102906.53;4906643;29;20056;-83
2021/09/02 07:30:34;;;;;;;10.43;5.60;;;;;;;17.93;66.53;102900.72;4906588;29;20056;-82
2021/09/02 07:33:00;;;;;;;10.40;5.70;;;;;;;18.03;66.15;102903.75;4905828;29;20025;-84
2021/09/02 07:35:25;;;;;;;13.40;5.75;;;;;;;17.77;67.22;102901.50;4906045;29;20059;-84
2021/09/02 07:37:51;;;;;;;13.77;6.20;;;;;;;17.70;67.21;102899.22;4903764;29;20132;-84
2021/09/02 07:40:16;;;;;;;10.93;5.75;;;;;;;18.00;66.08;102901.25;4899342;29;20032;-82
2021/09/02 07:42:42;;;;;;;10.27;5.88;;;;;;;17.89;66.36;102900.00;4903614;29;20253;-82
2021/09/02 07:45:08;;;;;;;15.73;6.00;;;;;;;18.09;65.91;102898.09;4882602;29;20037;-83
2021/09/02 07:47:34;;;;;;;12.25;6.00;;;;;;;18.12;65.77;102907.81;4894185;29;20088;-84
2021/09/02 07:50:00;;;;;;;13.60;5.72;;;;;;;17.74;66.62;102906.16;4893102;29;20028;-84
2021/09/02 07:52:26;;;;;;;13.18;6.28;;;;;;;17.82;66.59;102909.31;4891865;29;20057;-82
2021/09/02 07:54:52;;;;;;;14.73;6.82;;;;;;;17.70;67.13;102913.44;4892648;29;20037;-81
2021/09/02 07:57:19;;;;;;;13.75;6.97;;;;;;;17.91;66.29;102903.47;4894084;29;20044;-81
2021/09/02 07:59:46;;;;;;;11.48;5.82;;;;;;;18.06;65.49;102912.50;4890842;29;20468;-81
2021/09/02 08:02:12;;;;;;;15.95;6.45;;;;;;;18.23;64.79;102909.94;4893135;29;20036;-81
2021/09/02 08:04:37;;;;;;;13.60;6.00;;;;;;;18.39;64.74;102918.88;4854633;29;20057;-82
2021/09/02 08:07:04;;;;;;;13.02;6.30;;;;;;;18.22;65.04;102921.56;4858514;29;20080;-82
2021/09/02 08:09:30;;;;;;;11.60;5.93;;;;;;;18.21;64.94;102918.06;4856062;29;20034;-81
2021/09/02 08:11:56;;;;;;;14.75;5.75;;;;;;;18.10;64.77;102923.06;4872468;29;20093;-81
2021/09/02 08:14:24;;;;;;;11.88;5.25;;;;;;;18.13;65.19;102922.94;4876517;29;20030;-81
2021/09/02 08:16:54;;;;;;;13.45;5.95;;;;;;;18.26;64.04;102923.16;4878260;29;20078;-84
2021/09/02 08:19:19;;;;;;;11.98;5.15;;;;;;;18.29;64.26;102921.16;4886451;29;20097;-83
2021/09/02 08:21:47;;;;;;;9.57;5.13;;;;;;;18.15;64.06;102921.91;4839606;29;20113;-82
2021/09/02 08:24:12;;;;;;;16.33;6.05;;;;;;;18.32;63.85;102924.63;4886575;29;20057;-81
2021/09/02 08:26:42;;;;;;;12.07;5.72;;;;;;;18.25;63.52;102927.66;4871405;29;20030;-84
2021/09/02 08:29:07;;;;;;;12.98;5.53;;;;;;;18.13;63.78;102928.28;4871199;29;20033;-83
2021/09/02 08:31:33;;;;;;;12.45;6.30;;;;;;;18.26;63.39;102923.16;4886397;29;20077;-85
2021/09/02 08:33:59;;;;;;;17.25;6.88;;;;;;;17.90;64.48;102933.84;4879327;29;20049;-84
2021/09/02 08:36:28;;;;;;;13.65;6.50;;;;;;;18.15;63.90;102929.09;4886215;23;20113;-83
2021/09/02 08:38:54;;;;;;;11.30;6.53;;;;;;;18.44;63.32;102926.66;4880963;29;20042;-82
2021/09/02 08:41:20;;;;;;;16.70;7.13;;;;;;;17.95;64.13;102924.72;4882329;29;20030;-82
2021/09/02 08:43:45;;;;;;;13.40;6.45;;;;;;;18.18;63.65;102920.88;4863211;29;20092;-82
2021/09/02 08:46:11;;;;;;;12.32;6.63;;;;;;;17.95;64.04;102922.06;4877830;29;20033;-83
2021/09/02 08:48:38;;;;;;;18.88;6.60;;;;;;;18.60;62.56;102928.50;4857205;29;20053;-82
2021/09/02 08:51:04;;;;;;;13.13;7.18;;;;;;;18.36;63.44;102926.19;4845532;29;20062;-83
2021/09/02 08:53:30;;;;;;;12.20;6.57;;;;;;;18.45;62.97;102931.06;4854213;29;20025;-84
2021/09/02 08:55:55;;;;;;;13.70;6.72;;;;;;;18.13;63.79;102931.84;4870465;29;20374;-83
2021/09/02 08:58:24;;;;;;;13.80;6.90;;;;;;;18.24;62.91;102928.59;4854284;29;20029;-83
2021/09/02 09:00:49;;;;;;;13.02;6.15;;;;;;;18.65;61.83;102932.66;4853862;29;20120;-82
2021/09/02 09:03:17;;;;;;;16.30;6.78;;;;;;;18.35;62.70;102928.03;4869013;29;20030;-81
2021/09/02 09:05:42;;;;;;;16.50;6.85;;;;;;;18.65;61.93;102929.13;4869157;29;20029;-84
2021/09/02 09:08:09;;;;;;;13.27;6.90;;;;;;;18.27;62.65;102928.44;4851626;29;20537;-80
2021/09/02 09:10:35;;;;;;;13.60;6.88;;;;;;;18.27;62.67;102924.88;4867227;29;20081;-83
2021/09/02 09:13:03;;;;;;;13.02;6.47;;;;;;;18.25;62.25;102929.44;4866596;29;20057;-81
2021/09/02 09:15:29;;;;;;;11.90;5.93;;;;;;;18.50;61.55;102933.50;4870490;29;20032;-81
2021/09/02 09:17:56;;;;;;;13.07;6.32;;;;;;;18.97;60.20;102929.16;4852565;29;20148;-81
2021/09/02 09:20:23;;;;;;;15.70;6.53;;;;;;;19.03;59.66;102926.13;4850121;29;20022;-81
2021/09/02 09:22:57;;;;;;;14.05;6.57;;;;;;;19.00;60.01;102930.81;4850990;29;20420;-82
2021/09/02 09:25:26;;;;;;;12.43;6.20;;;;;;;19.67;58.01;102922.53;4852866;29;20029;-81
2021/09/02 09:27:56;;;;;;;11.50;6.38;;;;;;;20.04;56.93;102924.00;4869306;29;20044;-82
2021/09/02 09:30:28;;;;;;;14.43;6.38;;;;;;;19.68;57.48;102923.41;4859160;29;20173;-83
2021/09/02 09:32:56;;;;;;;14.45;5.70;;;;;;;19.65;57.67;102926.28;4890541;29;20065;-83
2021/09/02 09:35:27;;;;;;;13.93;5.97;;;;;;;19.16;57.95;102928.16;4893245;29;20053;-83
2021/09/02 09:38:19;;;;;;;8.52;5.28;;;;;;;19.98;56.81;102932.41;4880162;29;20033;-83
2021/09/02 09:40:51;;;;;;;11.48;5.47;;;;;;;19.48;56.98;102936.19;4869379;29;20045;-84
2021/09/02 09:43:21;;;;;;;10.77;5.57;;;;;;;19.07;59.27;102936.69;4868986;29;20041;-83
2021/09/02 09:45:50;;;;;;;12.60;5.70;;;;;;;19.99;57.54;102932.31;4868322;29;20044;-83
2021/09/02 09:48:31;;;;;;;11.27;5.78;;;;;;;20.33;55.73;102934.81;4852708;29;20389;-83
2021/09/02 09:51:08;;;;;;;11.02;5.72;;;;;;;20.54;55.08;102934.41;4869537;29;20025;-84
2021/09/02 09:53:34;;;;;;;10.13;5.78;;;;;;;20.66;54.65;102932.78;4868257;29;20545;-83
2021/09/02 09:55:59;;;;;;;11.43;5.78;;;;;;;20.36;55.68;102934.63;4850551;29;20045;-85
2021/09/02 09:58:26;;;;;;;10.35;5.15;;;;;;;20.26;55.15;102931.63;4856186;29;20030;-86
2021/09/02 10:00:59;;;;;;;10.93;5.28;;;;;;;20.30;55.45;102929.63;4877209;29;20026;-83
2021/09/02 10:03:29;;;;;;;10.30;5.43;;;;;;;20.66;54.68;102924.72;4879279;29;20034;-85
2021/09/02 10:05:54;;;;;;;12.23;5.50;;;;;;;20.40;55.10;102919.16;4877305;29;20052;-86
2021/09/02 10:08:21;;;;;;;8.20;5.53;;;;;;;20.25;55.63;102921.84;4851460;29;20485;-85
2021/09/02 10:10:48;;;;;;;13.07;5.60;;;;;;;20.90;54.55;102911.50;4867789;29;20025;-85
2021/09/02 10:13:13;;;;;;;7.65;5.28;;;;;;;21.18;53.84;102911.56;4866866;29;20037;-84
2021/09/02 10:15:39;;;;;;;11.30;5.32;;;;;;;21.04;53.59;102918.72;4847735;29;20051;-86
2021/09/02 10:18:04;;;;;;;9.30;5.35;;;;;;;21.03;53.51;102914.31;4848700;29;20071;-85
2021/09/02 10:20:35;;;;;;;11.20;5.50;;;;;;;21.37;52.34;102915.75;4851094;29;20022;-85
2021/09/02 10:23:02;;;;;;;9.23;5.25;;;;;;;21.25;53.70;102914.72;4861632;29;20021;-86
2021/09/02 10:25:31;;;;;;;10.20;5.15;;;;;;;20.95;54.05;102916.63;4865684;29;20405;-83
2021/09/02 10:28:09;;;;;;;10.93;5.22;;;;;;;21.38;52.28;102914.78;4866554;29;20109;-85
2021/09/02 10:30:43;;;;;;;8.93;5.13;;;;;;;21.03;53.62;102913.44;4861945;29;20028;-86
2021/09/02 10:33:32;;;;;;;13.80;5.57;;;;;;;21.06;54.13;102910.56;4844664;29;20108;-86
2021/09/02 10:35:57;;;;;;;11.15;4.95;;;;;;;21.20;53.16;102912.34;4860997;29;20477;-86
2021/09/02 10:38:38;;;;;;;8.57;4.88;;;;;;;20.33;55.29;102907.94;4845273;29;20045;-85
2021/09/02 10:41:04;;;;;;;8.98;4.68;;;;;;;20.17;55.45;102903.53;4863257;29;20173;-85
2021/09/02 10:43:49;;;;;;;9.93;4.60;;;;;;;20.86;54.42;102901.94;4863465;29;20058;-85
2021/09/02 10:46:37;;;;;;;8.23;4.53;;;;;;;21.44;51.82;102902.72;4846766;29;20072;-86
2021/09/02 10:49:26;;;;;;;6.38;4.70;;;;;;;21.11;52.58;102907.56;4863932;29;20109;-84
2021/09/02 10:52:21;;;;;;;9.63;5.22;;;;;;;21.03;52.90;102908.06;4861809;29;20029;-85
2021/09/02 10:54:46;;;;;;;9.35;4.80;;;;;;;21.07;53.12;102909.56;4841098;29;20044;-86
2021/09/02 10:57:12;;;;;;;10.35;4.88;;;;;;;21.15;52.71;102904.56;4843291;29;20049;-85
2021/09/02 10:59:50;;;;;;;12.88;5.45;;;;;;;20.67;53.85;102900.44;4844443;29;20068;-85
2021/09/02 11:02:15;;;;;;;12.07;5.35;;;;;;;20.91;53.83;102904.34;4844580;29;20116;-84
2021/09/02 11:04:40;;;;;;;12.07;5.03;;;;;;;21.00;53.51;102902.88;4844243;29;20488;-86
2021/09/02 11:07:06;;;;;;;8.63;5.03;;;;;;;21.10;53.40;102895.94;4844125;29;20042;-86
2021/09/02 11:09:33;;;;;;;9.23;5.90;;;;;;;21.15;53.70;102895.63;4828593;29;20034;-86
2021/09/02 11:11:59;;;;;;;7.05;4.63;;;;;;;20.71;54.05;102895.69;4828811;29;20045;-86
2021/09/02 11:14:24;;;;;;;8.85;5.35;;;;;;;20.59;54.51;102897.34;4837451;29;20148;-85
2021/09/02 11:16:50;;;;;;;11.20;5.30;;;;;;;20.85;54.01;102896.66;4844984;29;20533;-85